메인 페이지
METAR-TAF:

METAR-TAF

공항 :

푸아모투 국제공항

통가타푸 섬, 통가

위도: 21-14S, 경도: 175-09W, 고도: 38m

현재 날씨관측

예보는 1 시간 7분 전, 04:00시(UTC)에 발표되었습니다.
동북동7kt
온도 24°C
습도 78%
기압 1008 hPa
시정 10km 이상
고도 1000ft 상공 구름 조금
고도 1700ft 상공 구름 보통
고도 10000ft 상공 구름 많음

METAR: NFTF 150400Z 07007KT 9999 FEW010 SCT017 BKN100 24/20 Q1008

시각: 19:07 (05:07 UTC)

예보

예보는 5 시간 48분 전, 23:19시(UTC)에 발표되었습니다.
예보 대상 시간: 15일 00시부터 15일 24시까지 (UTC)
북동8kt
시정 10km 이상
고도 800ft 상공 구름 보통
고도 1600ft 상공 구름 많음
고도 10000ft 상공 흐림
약한소나기
확률 40% :
일시적
15일 00시부터 15일 18시까지 (UTC)
시정: 3000m
고도 1500ft 상공 구름 많음
고도 1700ft 상공 구름 조금, 적란운.
뇌우, 비

TAF: NFTF 142319Z 1500/1524 05008KT 9999 -SHRA SCT008 BKN016 OVC100 PROB40 TEMPO 1500/1518 3000 TSRA BKN015 FEW017CB

4,000개 이상의 공항 관측 자료 및 예보 (METAR 및 TAF 보고).

지도상에서 검색 가능한 기상관측소가 노란 점과 빨간 점으로 표시되어 있습니다.

기상관측소 명을 보려면 표시 위로 마우스를 이동하세요.

날씨 관측과 예보를 보려면 클릭하세요.

지도 변경 : 확대하려면 엑스 표시가 있는 녹색 버튼, 축소하려면 빼기 표시가 있는 녹색 버튼, 다음 페이지의 지도를 보려면 녹색 화살표를 클릭하세요.


METAR-TAF: